METAR Data
IDs: Format: Raw Decoded Include TAF

Data at: 0703 UTC 27 Sep 2020

METAR for:KELA (Eagle Lake Arpt, TX, US)
Text:KELA 270655Z AUTO 16006KT 5SM BR BKN016 BKN022 24/23 A2985 RMK AO2 T02410232
Temperature: 24.1°C ( 75°F)
Dewpoint: 23.2°C ( 74°F) [RH = 95%]
Pressure (altimeter):29.85 inches Hg (1010.9 mb)
Winds:from the SSE (160 degrees) at 7 MPH (6 knots; 3.1 m/s)
Visibility: 5 sm ( 8 km)
Ceiling:1600 feet AGL
Clouds: broken clouds at 1600 feet AGL, broken clouds at 2200 feet AGL
Weather:BR (mist)
QC Flag:automated observation with no human augmentation

TAF for:KELA (Eagle Lake Arpt, TX, US)
Text:No data found